Time;durP1;ratioP1;P1;durP2;ratioP2;P2;SDS_P1;SDS_P2;PMS_P1;PMS_P2;Temp;Humidity;BMP_temperature;BMP_pressure;BME280_temperature;BME280_humidity;BME280_pressure;Samples;Min_cycle;Max_cycle;Signal;HPM_P1;HPM_P2
2021/12/04 00:01:51;;;;;;;1999.90;999.90;;;;;;;-1.76;55.60;99836.31;4942534;28;98131;-77
2021/12/04 00:04:22;;;;;;;1999.90;999.90;;;;;;;-1.76;56.35;99821.53;4947341;28;98671;-75
2021/12/04 00:06:50;;;;;;;1999.90;999.90;;;;;;;-1.71;55.53;99827.03;4944601;28;97154;-76
2021/12/04 00:09:20;;;;;;;1999.90;999.90;;;;;;;-1.68;55.68;99819.34;4947906;28;98383;-75
2021/12/04 00:11:54;;;;;;;1999.90;999.90;;;;;;;-1.68;55.76;99829.78;4947607;28;98242;-74
2021/12/04 00:14:22;;;;;;;1999.90;999.90;;;;;;;-1.64;55.52;99830.03;4947530;28;98752;-73
2021/12/04 00:16:51;;;;;;;1999.90;999.90;;;;;;;-1.61;55.46;99813.66;4945467;28;99842;-72
2021/12/04 00:19:20;;;;;;;1999.90;999.90;;;;;;;-1.59;55.89;99819.84;4946213;28;97479;-73
2021/12/04 00:21:47;;;;;;;1999.90;999.90;;;;;;;-1.63;56.26;99821.41;4945338;28;97151;-73
2021/12/04 00:24:15;;;;;;;1999.90;999.90;;;;;;;-1.62;55.57;99823.22;4944379;28;98006;-74
2021/12/04 00:26:43;;;;;;;1999.90;999.90;;;;;;;-1.62;56.10;99819.69;4945695;28;97663;-74
2021/12/04 00:29:11;;;;;;;1999.90;999.90;;;;;;;-1.62;55.56;99806.66;4945575;28;97278;-74
2021/12/04 00:31:44;;;;;;;1999.90;999.90;;;;;;;-1.60;55.85;99805.94;4946880;28;97052;-74
2021/12/04 00:34:13;;;;;;;1999.90;999.90;;;;;;;-1.63;55.64;99803.13;4928629;28;99713;-72
2021/12/04 00:36:57;;;;;;;1999.90;999.90;;;;;;;-1.60;55.47;99807.63;4945649;28;100537;-72
2021/12/04 00:50:51;;;;;;;1999.90;999.90;;;;;;;-1.55;55.42;99801.84;4924446;28;97217;-73
2021/12/04 00:53:19;;;;;;;1999.90;999.90;;;;;;;-1.56;55.92;99791.34;4924719;28;97903;-73
2021/12/04 00:55:47;;;;;;;1999.90;999.90;;;;;;;-1.55;55.56;99798.34;4933349;28;97613;-73
2021/12/04 00:58:14;;;;;;;1999.90;999.90;;;;;;;-1.57;55.44;99786.91;4945430;28;97785;-74
2021/12/04 01:00:42;;;;;;;1999.90;999.90;;;;;;;-1.57;55.80;99776.50;4946804;28;97487;-73
2021/12/04 01:03:10;;;;;;;1999.90;999.90;;;;;;;-1.60;56.35;99782.47;4947937;28;97568;-73
2021/12/04 01:05:57;;;;;;;1999.90;999.90;;;;;;;-1.60;56.19;99781.56;4945648;28;99959;-74
2021/12/04 01:08:42;;;;;;;1999.90;999.90;;;;;;;-1.57;55.88;99779.09;4946954;28;99378;-75
2021/12/04 01:11:28;;;;;;;1999.90;999.90;;;;;;;-1.57;56.17;99781.72;4949097;28;98895;-75
2021/12/04 01:13:56;;;;;;;1999.90;999.90;;;;;;;-1.55;55.50;99780.97;4945978;28;97492;-75
2021/12/04 01:16:23;;;;;;;1999.90;999.90;;;;;;;-1.57;56.17;99781.72;4946530;28;98648;-73
2021/12/04 01:18:51;;;;;;;1999.90;999.90;;;;;;;-1.57;56.03;99776.50;4942090;28;98806;-73
2021/12/04 01:21:20;;;;;;;1999.90;999.90;;;;;;;-1.60;56.39;99776.34;4947070;28;97443;-73
2021/12/04 01:23:48;;;;;;;1999.90;999.90;;;;;;;-1.61;55.94;99770.22;4946477;28;97443;-73
2021/12/04 01:26:16;;;;;;;1999.90;999.90;;;;;;;-1.60;55.76;99766.81;4929011;28;99620;-73
2021/12/04 01:28:44;;;;;;;1999.90;999.90;;;;;;;-1.59;56.38;99775.50;4930216;28;100318;-73
2021/12/04 01:31:12;;;;;;;1999.90;999.90;;;;;;;-1.56;56.11;99762.66;4946065;28;97169;-72
2021/12/04 01:33:41;;;;;;;1999.90;999.90;;;;;;;-1.53;55.82;99762.81;4945786;28;96975;-72
2021/12/04 01:36:09;;;;;;;1999.90;999.90;;;;;;;-1.52;56.21;99768.09;4946635;28;97929;-73
2021/12/04 01:38:38;;;;;;;1999.90;999.90;;;;;;;-1.53;55.77;99765.41;4945010;28;97769;-73
2021/12/04 01:41:06;;;;;;;1999.90;999.90;;;;;;;-1.50;56.10;99763.84;4944883;28;97294;-73
2021/12/04 01:43:34;;;;;;;1999.90;999.90;;;;;;;-1.50;56.08;99768.16;4928642;28;100700;-72
2021/12/04 01:46:03;;;;;;;1999.90;999.90;;;;;;;-1.49;55.77;99765.66;4945668;28;97642;-73
2021/12/04 01:48:31;;;;;;;1999.90;999.90;;;;;;;-1.50;56.36;99762.94;4931953;28;96948;-71
2021/12/04 01:50:59;;;;;;;1999.90;999.90;;;;;;;-1.50;55.47;99760.34;4931810;28;97714;-73
2021/12/04 01:53:27;;;;;;;1999.90;999.90;;;;;;;-1.51;56.27;99764.69;4934519;28;96909;-71
2021/12/04 01:55:58;;;;;;;1999.90;999.90;;;;;;;-1.50;55.78;99752.53;4929599;28;100212;-72
2021/12/04 01:58:28;;;;;;;1999.90;999.90;;;;;;;-1.49;55.64;99764.75;4948148;28;96716;-72
2021/12/04 02:00:57;;;;;;;1999.90;999.90;;;;;;;-1.53;55.96;99748.06;4961572;28;97149;-74
2021/12/04 02:03:25;;;;;;;1999.90;999.90;;;;;;;-1.53;56.33;99745.44;4948913;28;97193;-75
2021/12/04 02:05:53;;;;;;;1999.90;999.90;;;;;;;-1.57;55.98;99753.91;4947197;28;98401;-73
2021/12/04 02:08:23;;;;;;;1999.90;999.90;;;;;;;-1.54;56.00;99746.25;4948866;28;98914;-75
2021/12/04 02:10:54;;;;;;;1999.90;999.90;;;;;;;-1.54;56.50;99746.25;4949562;28;96888;-72
2021/12/04 02:13:23;;;;;;;1999.90;999.90;;;;;;;-1.57;56.05;99737.38;4951210;28;97843;-73
2021/12/04 02:15:51;;;;;;;1999.90;999.90;;;;;;;-1.57;56.45;99748.72;4950552;28;98913;-74
2021/12/04 02:18:21;;;;;;;1999.90;999.90;;;;;;;-1.57;56.78;99742.59;4932414;28;100120;-73
2021/12/04 02:20:51;;;;;;;1999.90;999.90;;;;;;;-1.52;56.15;99742.00;4949454;28;97686;-74
2021/12/04 02:23:20;;;;;;;1999.90;999.90;;;;;;;-1.49;56.29;99743.91;4949358;28;96817;-73
2021/12/04 02:25:48;;;;;;;1999.90;999.90;;;;;;;-1.47;56.03;99737.91;4949161;28;99186;-70
2021/12/04 02:28:16;;;;;;;1999.90;999.90;;;;;;;-1.47;56.49;99737.06;4949064;28;99111;-75
2021/12/04 02:30:45;;;;;;;1999.90;999.90;;;;;;;-1.46;55.93;99729.28;4965366;28;97003;-75
2021/12/04 02:33:14;;;;;;;1999.90;999.90;;;;;;;-1.45;56.33;99730.19;4949577;28;96925;-73
2021/12/04 02:35:43;;;;;;;1999.90;999.90;;;;;;;-1.43;56.10;99736.41;4947247;28;100259;-73
2021/12/04 02:38:12;;;;;;;1999.90;999.90;;;;;;;-1.44;55.92;99731.97;4948027;28;98921;-75
2021/12/04 02:40:42;;;;;;;1999.90;999.90;;;;;;;-1.46;55.95;99724.09;4949925;28;97646;-74
2021/12/04 02:43:10;;;;;;;1999.90;999.90;;;;;;;-1.43;55.99;99718.13;4948516;28;97063;-73
2021/12/04 02:45:39;;;;;;;1999.90;999.90;;;;;;;-1.43;56.21;99716.41;4946338;28;99763;-72
2021/12/04 02:48:07;;;;;;;1999.90;999.90;;;;;;;-1.44;56.40;99712.00;4945715;28;100327;-73
2021/12/04 02:50:35;;;;;;;1999.90;999.90;;;;;;;-1.41;55.87;99711.25;4947980;28;97241;-73
2021/12/04 02:53:02;;;;;;;1999.90;999.90;;;;;;;-1.38;56.48;99712.34;4947830;28;97029;-73
2021/12/04 02:55:32;;;;;;;1999.90;999.90;;;;;;;-1.36;55.94;99699.38;4947392;28;100703;-72
2021/12/04 02:57:59;;;;;;;1999.90;999.90;;;;;;;-1.34;55.94;99692.50;4945214;28;98589;-73
2021/12/04 03:00:28;;;;;;;1999.90;999.90;;;;;;;-1.35;56.03;99694.22;4948587;28;96614;-74
2021/12/04 03:02:56;;;;;;;1999.90;999.90;;;;;;;-1.35;56.07;99681.19;4926529;28;97981;-74
2021/12/04 03:05:26;;;;;;;1999.90;999.90;;;;;;;-1.34;56.13;99676.84;4917887;28;99227;-73
2021/12/04 03:07:56;;;;;;;1999.90;999.90;;;;;;;-1.32;56.20;99667.41;4947015;28;97750;-73
2021/12/04 03:10:25;;;;;;;1999.90;999.90;;;;;;;-1.29;56.51;99664.94;4947054;28;96996;-74
2021/12/04 03:12:54;;;;;;;1999.90;999.90;;;;;;;-1.24;56.37;99663.44;4948565;28;97008;-74
2021/12/04 03:15:22;;;;;;;1999.90;999.90;;;;;;;-1.20;56.21;99662.78;4947097;28;98830;-74
2021/12/04 03:17:51;;;;;;;1999.90;999.90;;;;;;;-1.17;55.65;99663.81;4948782;28;98569;-73
2021/12/04 03:20:19;;;;;;;1999.90;999.90;;;;;;;-1.13;56.18;99659.66;4930840;28;97679;-74
2021/12/04 03:22:48;;;;;;;1999.90;999.90;;;;;;;-1.10;55.79;99662.41;4948230;28;96802;-73
2021/12/04 03:25:19;;;;;;;1999.90;999.90;;;;;;;-1.06;55.71;99661.75;4948085;28;98782;-73
2021/12/04 03:27:49;;;;;;;1999.90;999.90;;;;;;;-1.05;55.74;99653.97;4947958;28;100747;-73
2021/12/04 03:30:24;;;;;;;1999.90;999.90;;;;;;;-1.03;55.77;99646.25;4948000;28;97836;-73
2021/12/04 03:41:07;;;;;;;1999.90;999.90;;;;;;;-0.96;55.47;99645.72;4948985;28;97558;-73
2021/12/04 03:43:35;;;;;;;1999.90;999.90;;;;;;;-0.94;55.73;99644.94;4949047;28;97183;-74
2021/12/04 03:46:07;;;;;;;1999.90;999.90;;;;;;;-0.94;55.75;99642.34;4951447;28;97378;-73
2021/12/04 03:48:53;;;;;;;1999.90;999.90;;;;;;;-0.92;55.82;99637.19;4950517;28;97596;-73
2021/12/04 03:51:21;;;;;;;1999.90;999.90;;;;;;;-0.93;55.75;99633.72;4949532;28;96910;-74
2021/12/04 03:53:50;;;;;;;1999.90;999.90;;;;;;;-0.93;55.63;99628.47;4949678;28;97431;-72
2021/12/04 03:56:22;;;;;;;1999.90;999.90;;;;;;;-0.91;55.74;99634.69;4951447;28;97773;-73
2021/12/04 03:58:50;;;;;;;1999.90;999.90;;;;;;;-0.92;55.70;99626.75;4950630;28;97973;-72
2021/12/04 04:01:19;;;;;;;1999.90;999.90;;;;;;;-0.91;55.54;99628.56;4948633;28;96818;-72
2021/12/04 04:03:47;;;;;;;1999.90;999.90;;;;;;;-0.92;55.71;99627.66;4947595;28;97146;-73
2021/12/04 04:06:14;;;;;;;1999.90;999.90;;;;;;;-0.92;55.44;99631.97;4948464;28;100001;-74
2021/12/04 04:08:42;;;;;;;1999.90;999.90;;;;;;;-0.92;55.86;99625.03;4932593;28;99420;-73
2021/12/04 04:11:10;;;;;;;1999.90;999.90;;;;;;;-0.93;55.40;99631.09;4949870;28;96986;-74
2021/12/04 04:13:41;;;;;;;1999.90;999.90;;;;;;;-0.92;56.03;99626.75;4948991;28;97451;-74
2021/12/04 04:16:09;;;;;;;1999.90;999.90;;;;;;;-0.92;55.71;99629.34;4949841;28;98937;-73
2021/12/04 04:18:38;;;;;;;1999.90;999.90;;;;;;;-0.91;55.92;99631.16;4949018;28;98774;-73
2021/12/04 04:21:06;;;;;;;1999.90;999.90;;;;;;;-0.93;55.64;99624.97;4949073;28;97671;-74
2021/12/04 04:23:33;;;;;;;1999.90;999.90;;;;;;;-0.95;56.01;99626.59;4948772;28;96873;-73
2021/12/04 04:26:01;;;;;;;1999.90;999.90;;;;;;;-0.95;56.23;99617.06;4947171;28;98596;-74
2021/12/04 04:28:29;;;;;;;1999.90;999.90;;;;;;;-0.96;56.15;99619.63;4947966;28;97517;-73
2021/12/04 04:30:57;;;;;;;1999.90;999.90;;;;;;;-0.98;55.89;99616.03;4947052;28;97599;-73
2021/12/04 04:33:25;;;;;;;1999.90;999.90;;;;;;;-1.02;55.92;99614.09;4947141;28;97123;-72
2021/12/04 04:36:07;;;;;;;1999.90;999.90;;;;;;;-1.05;56.14;99622.66;4948607;28;97072;-72
2021/12/04 04:38:43;;;;;;;1999.90;999.90;;;;;;;-1.06;56.07;99620.88;4948664;28;97556;-73
2021/12/04 05:00:55;;;;;;;1999.90;999.90;;;;;;;-1.13;56.97;99613.56;4918339;28;98871;-73
2021/12/04 05:12:01;;;;;;;1999.90;999.90;;;;;;;-1.14;56.76;99603.06;4944396;28;100775;-72
2021/12/04 05:14:28;;;;;;;1999.90;999.90;;;;;;;-1.18;56.75;99611.56;4946416;28;97216;-73
2021/12/04 05:17:03;;;;;;;1999.90;999.90;;;;;;;-1.18;57.09;99617.69;4945712;28;97666;-73
2021/12/04 05:19:38;;;;;;;1999.90;999.90;;;;;;;-1.18;56.87;99612.47;4946254;28;97943;-74
2021/12/04 05:22:07;;;;;;;1999.90;999.90;;;;;;;-1.16;56.61;99609.94;4936231;28;98095;-73
2021/12/04 05:24:36;;;;;;;1999.90;999.90;;;;;;;-1.15;57.24;99609.09;4947461;28;97043;-73
2021/12/04 05:27:04;;;;;;;1999.90;999.90;;;;;;;-1.13;56.87;99607.44;4945356;28;97240;-74
2021/12/04 05:29:32;;;;;;;1999.90;999.90;;;;;;;-1.14;57.14;99608.28;4945661;28;97582;-75
2021/12/04 05:32:00;;;;;;;1999.90;999.90;;;;;;;-1.15;56.68;99596.03;4946913;28;97381;-73
2021/12/04 05:34:29;;;;;;;1999.90;999.90;;;;;;;-1.14;57.13;99592.63;4943909;28;97215;-71
2021/12/04 05:36:57;;;;;;;1999.90;999.90;;;;;;;-1.13;56.52;99599.63;4945156;28;96965;-72
2021/12/04 05:39:25;;;;;;;1999.90;999.90;;;;;;;-1.15;57.05;99602.16;4943905;28;99233;-72
2021/12/04 05:41:54;;;;;;;1999.90;999.90;;;;;;;-1.15;57.17;99602.16;4942212;28;98804;-72
2021/12/04 05:44:25;;;;;;;1999.90;999.90;;;;;;;-1.18;56.93;99601.13;4944221;28;98022;-72
2021/12/04 05:46:57;;;;;;;1999.90;999.90;;;;;;;-1.21;56.96;99599.25;4945254;28;96803;-70
2021/12/04 05:49:28;;;;;;;1999.90;999.90;;;;;;;-1.20;57.17;99602.75;4943103;28;98449;-72
2021/12/04 05:52:18;;;;;;;1999.90;999.90;;;;;;;-1.20;57.33;99603.66;4943653;28;98815;-73
2021/12/04 05:55:08;;;;;;;1999.90;999.90;;;;;;;-1.19;56.96;99601.91;4944589;28;97854;-72
2021/12/04 05:57:38;;;;;;;1999.90;999.90;;;;;;;-1.20;56.97;99605.38;4944314;28;97695;-72
2021/12/04 06:00:07;;;;;;;1999.90;999.90;;;;;;;-1.19;57.26;99599.31;4944232;28;97587;-72
2021/12/04 06:02:35;;;;;;;1999.90;999.90;;;;;;;-1.21;57.04;99593.13;4939137;28;99686;-72
2021/12/04 06:05:03;;;;;;;1999.90;999.90;;;;;;;-1.22;57.46;99602.69;4943834;28;96934;-72
2021/12/04 06:07:31;;;;;;;1999.90;999.90;;;;;;;-1.19;57.10;99604.53;4941642;28;97481;-73
2021/12/04 06:09:59;;;;;;;1999.90;999.90;;;;;;;-1.19;57.16;99589.78;4942983;28;97697;-72
2021/12/04 06:12:26;;;;;;;1999.90;999.90;;;;;;;-1.15;57.34;99593.44;4943248;28;99618;-72
2021/12/04 06:14:56;;;;;;;1999.90;999.90;;;;;;;-1.17;57.06;99582.03;4945242;28;96947;-74
2021/12/04 06:17:25;;;;;;;1999.90;999.90;;;;;;;-1.18;57.44;99572.41;4944954;28;98090;-72
2021/12/04 06:22:38;;;;;;;1999.90;999.90;;;;;;;-1.21;57.13;99572.25;4945736;28;97749;-72
2021/12/04 06:25:07;;;;;;;1999.90;999.90;;;;;;;-1.22;57.38;99578.31;4943675;28;96765;-72
2021/12/04 06:27:35;;;;;;;1999.90;999.90;;;;;;;-1.25;57.82;99583.38;4940870;28;97117;-72
2021/12/04 06:30:05;;;;;;;1999.90;999.90;;;;;;;-1.27;57.35;99577.19;4924038;28;99179;-72
2021/12/04 06:32:35;;;;;;;1999.90;999.90;;;;;;;-1.26;57.57;99582.47;4947141;28;97611;-74
2021/12/04 06:35:03;;;;;;;1999.90;999.90;;;;;;;-1.26;57.75;99582.47;4942808;28;97655;-73
2021/12/04 06:37:30;;;;;;;1999.90;999.90;;;;;;;-1.23;57.34;99579.13;4937399;28;98049;-72
2021/12/04 06:39:58;;;;;;;1999.90;999.90;;;;;;;-1.23;57.56;99571.31;4942102;28;99234;-72
2021/12/04 06:42:26;;;;;;;1999.90;999.90;;;;;;;-1.23;57.36;99580.00;4946048;28;100428;-71
2021/12/04 06:44:55;;;;;;;1999.90;999.90;;;;;;;-1.21;57.57;99580.06;4947036;28;96830;-72
2021/12/04 06:47:25;;;;;;;1999.90;999.90;;;;;;;-1.21;57.17;99586.19;4945294;28;98463;-72
2021/12/04 06:49:58;;;;;;;1999.90;999.90;;;;;;;-1.20;57.23;99582.78;4945894;28;99283;-73
2021/12/04 06:52:27;;;;;;;1999.90;999.90;;;;;;;-1.20;57.45;99587.09;4948448;28;97741;-72
2021/12/04 06:54:57;;;;;;;1999.90;999.90;;;;;;;-1.23;57.45;99576.53;4946843;28;97860;-70
2021/12/04 06:57:25;;;;;;;1999.90;999.90;;;;;;;-1.22;57.52;99578.31;4948012;28;97029;-72
2021/12/04 06:59:55;;;;;;;1999.90;999.90;;;;;;;-1.21;57.50;99575.75;4946108;28;100667;-73
2021/12/04 07:02:23;;;;;;;1999.90;999.90;;;;;;;-1.20;57.38;99584.50;4944699;28;99784;-74
2021/12/04 07:04:52;;;;;;;1999.90;999.90;;;;;;;-1.23;57.52;99584.34;4930255;28;96999;-72
2021/12/04 07:07:20;;;;;;;1999.90;999.90;;;;;;;-1.25;57.78;99586.88;4944850;28;97397;-71
2021/12/04 07:09:47;;;;;;;1999.90;999.90;;;;;;;-1.25;57.68;99589.47;4930292;28;98643;-72
2021/12/04 07:12:15;;;;;;;1999.90;999.90;;;;;;;-1.24;57.75;99590.38;4943806;28;100594;-72
2021/12/04 07:14:43;;;;;;;1999.90;999.90;;;;;;;-1.25;57.86;99594.69;4939906;28;98877;-73
2021/12/04 07:17:11;;;;;;;1999.90;999.90;;;;;;;-1.25;57.74;99591.22;4939421;28;97044;-71
2021/12/04 07:19:40;;;;;;;1999.90;999.90;;;;;;;-1.26;57.71;99603.34;4934623;28;100372;-73
2021/12/04 07:22:11;;;;;;;1999.90;999.90;;;;;;;-1.24;57.74;99606.03;4936456;28;98247;-72
2021/12/04 07:24:38;;;;;;;1999.90;999.90;;;;;;;-1.26;57.87;99598.13;4942560;28;97490;-72
2021/12/04 07:27:06;;;;;;;1999.90;999.90;;;;;;;-1.24;57.51;99606.03;4941120;28;96916;-74
2021/12/04 07:29:34;;;;;;;1999.90;999.90;;;;;;;-1.25;57.96;99593.81;4948415;28;100019;-75
2021/12/04 07:32:02;;;;;;;1999.90;999.90;;;;;;;-1.26;57.55;99597.22;4938660;28;100515;-74
2021/12/04 07:34:30;;;;;;;1999.90;999.90;;;;;;;-1.29;57.77;99594.47;4940046;28;97631;-73
2021/12/04 07:36:57;;;;;;;1999.90;999.90;;;;;;;-1.30;58.08;99593.59;4937365;28;97424;-73
2021/12/04 07:39:26;;;;;;;1999.90;999.90;;;;;;;-1.29;57.53;99589.28;4923183;28;99330;-73
2021/12/04 07:41:54;;;;;;;1999.90;999.90;;;;;;;-1.29;57.67;99594.47;4938248;28;98001;-73
2021/12/04 07:44:22;;;;;;;1999.90;999.90;;;;;;;-1.28;58.05;99583.22;4941987;28;97093;-73
2021/12/04 07:46:50;;;;;;;1999.90;999.90;;;;;;;-1.26;57.91;99589.41;4941344;28;97495;-76
2021/12/04 07:49:17;;;;;;;1999.90;999.90;;;;;;;-1.26;58.04;99585.09;4943310;28;97842;-77
2021/12/04 07:51:47;;;;;;;1999.90;999.90;;;;;;;-1.27;57.91;99593.72;4940527;28;99324;-76
2021/12/04 07:54:14;;;;;;;1999.90;999.90;;;;;;;-1.28;58.12;99599.78;4941461;28;96983;-76
2021/12/04 07:56:43;;;;;;;1999.90;999.90;;;;;;;-1.28;57.79;99594.56;4946516;28;97692;-75
2021/12/04 07:59:11;;;;;;;1999.90;999.90;;;;;;;-1.24;57.53;99595.59;4918676;28;100489;-75
2021/12/04 08:01:39;;;;;;;1999.90;999.90;;;;;;;-1.22;57.89;99604.41;4944897;28;99678;-76
2021/12/04 08:04:07;;;;;;;1999.90;999.90;;;;;;;-1.22;57.92;99596.56;4926350;28;97872;-75
2021/12/04 08:06:35;;;;;;;1999.90;999.90;;;;;;;-1.22;58.05;99593.97;4946643;28;97288;-76
2021/12/04 08:09:04;;;;;;;1999.90;999.90;;;;;;;-1.21;57.52;99598.34;4946795;28;98902;-76
2021/12/04 08:11:31;;;;;;;1999.90;999.90;;;;;;;-1.21;57.60;99596.63;4946029;28;98889;-75
2021/12/04 08:14:01;;;;;;;1999.90;999.90;;;;;;;-1.19;57.61;99599.31;4945553;28;97199;-75
2021/12/04 08:16:28;;;;;;;1999.90;999.90;;;;;;;-1.19;57.73;99592.38;4941599;28;97790;-75
2021/12/04 08:18:56;;;;;;;1999.90;999.90;;;;;;;-1.18;57.62;99590.69;4945040;28;99788;-75
2021/12/04 08:21:24;;;;;;;1999.90;999.90;;;;;;;-1.17;57.89;99597.69;4946866;28;97687;-75
2021/12/04 08:23:52;;;;;;;1999.90;999.90;;;;;;;-1.15;57.52;99596.94;4945231;28;97542;-75
2021/12/04 08:26:20;;;;;;;1999.90;999.90;;;;;;;-1.16;57.81;99599.50;4947718;28;97206;-75
2021/12/04 08:28:48;;;;;;;1999.90;999.90;;;;;;;-1.16;57.72;99602.09;4946597;28;100219;-75
2021/12/04 08:31:18;;;;;;;1999.90;999.90;;;;;;;-1.19;57.86;99602.84;4948815;28;99539;-75
2021/12/04 08:33:46;;;;;;;1999.90;999.90;;;;;;;-1.21;58.04;99596.63;4947526;28;97058;-75
2021/12/04 08:36:14;;;;;;;1999.90;999.90;;;;;;;-1.23;58.07;99597.41;4930540;28;97335;-75
2021/12/04 08:38:46;;;;;;;1999.90;999.90;;;;;;;-1.22;58.00;99596.56;4946836;28;97769;-74
2021/12/04 08:41:14;;;;;;;1999.90;999.90;;;;;;;-1.22;57.83;99593.97;4944689;28;99738;-74
2021/12/04 08:43:42;;;;;;;1999.90;999.90;;;;;;;-1.20;57.87;99598.44;4945544;28;96842;-75
2021/12/04 08:46:10;;;;;;;1999.90;999.90;;;;;;;-1.18;57.56;99603.72;4945616;28;98098;-73
2021/12/04 08:48:39;;;;;;;1999.90;999.90;;;;;;;-1.18;58.11;99598.50;4942933;28;99010;-73
2021/12/04 08:51:07;;;;;;;1999.90;999.90;;;;;;;-1.15;58.17;99606.47;4941863;28;99391;-73
2021/12/04 08:53:36;;;;;;;1999.90;999.90;;;;;;;-1.16;58.00;99607.31;4944998;28;97036;-73
2021/12/04 08:56:04;;;;;;;1999.90;999.90;;;;;;;-1.16;57.91;99605.56;4944697;28;97486;-74
2021/12/04 08:58:32;;;;;;;1999.90;999.90;;;;;;;-1.15;58.17;99606.47;4942800;28;100849;-73
2021/12/04 09:01:04;;;;;;;1999.90;999.90;;;;;;;-1.12;58.13;99604.00;4944398;28;99427;-75
2021/12/04 09:03:35;;;;;;;1999.90;999.90;;;;;;;-1.10;57.83;99604.97;4943491;28;98220;-73
2021/12/04 09:06:05;;;;;;;1999.90;999.90;;;;;;;-1.07;57.90;99599.94;4927626;28;97862;-74
2021/12/04 09:08:34;;;;;;;1999.90;999.90;;;;;;;-1.04;57.81;99600.06;4944590;28;97015;-74
2021/12/04 09:11:06;;;;;;;1999.90;999.90;;;;;;;-1.04;57.64;99605.28;4943667;28;97700;-74
2021/12/04 09:13:34;;;;;;;1999.90;999.90;;;;;;;-1.00;57.90;99602.00;4942920;28;96857;-72
2021/12/04 09:16:03;;;;;;;1999.90;999.90;;;;;;;-1.00;57.91;99602.00;4942646;28;96864;-74
2021/12/04 09:18:31;;;;;;;1999.90;999.90;;;;;;;-0.98;57.96;99608.19;4943729;28;99303;-73
2021/12/04 09:20:58;;;;;;;1999.90;999.90;;;;;;;-1.00;57.70;99597.69;4943198;28;98682;-74
2021/12/04 09:23:32;;;;;;;1999.90;999.90;;;;;;;-0.99;57.88;99604.69;4943137;28;97287;-74
2021/12/04 09:26:02;;;;;;;1999.90;999.90;;;;;;;-0.99;57.99;99598.56;4942474;28;97653;-73
2021/12/04 09:28:41;;;;;;;1999.90;999.90;;;;;;;-0.98;57.97;99605.59;4942975;28;98767;-74
2021/12/04 09:34:23;;;;;;;1999.90;999.90;;;;;;;-1.01;58.21;99589.75;4940223;28;97231;-73
2021/12/04 10:02:09;;;;;;;1999.90;999.90;;;;;;;-0.83;57.73;99575.00;4904593;28;100422;-76
2021/12/04 10:05:01;;;;;;;1999.90;999.90;;;;;;;-0.79;57.67;99569.06;4931158;28;98810;-78
2021/12/04 10:19:01;;;;;;;1999.90;999.90;;;;;;;-0.76;58.06;99561.41;4940357;28;97378;-76
2021/12/04 10:21:41;;;;;;;1999.90;999.90;;;;;;;-0.76;58.10;99545.72;4939850;28;98147;-76
2021/12/04 10:24:31;;;;;;;1999.90;999.90;;;;;;;-0.78;58.02;99531.69;4939456;28;98023;-76
2021/12/04 10:32:38;;;;;;;1999.90;999.90;;;;;;;-0.74;57.78;99528.41;4948191;28;97390;-75
2021/12/04 10:35:10;;;;;;;1999.90;999.90;;;;;;;-0.71;57.93;99511.97;4943684;28;98315;-76
2021/12/04 10:37:47;;;;;;;1999.90;999.90;;;;;;;-0.70;57.89;99509.41;4930499;28;100511;-73
2021/12/04 10:40:16;;;;;;;1999.90;999.90;;;;;;;-0.66;57.55;99503.50;4945211;28;98484;-76
2021/12/04 10:42:50;;;;;;;1999.90;999.90;;;;;;;-0.65;57.71;99497.50;4945893;28;97034;-74
2021/12/04 10:45:19;;;;;;;1999.90;999.90;;;;;;;-0.62;57.75;99488.88;4939978;28;98336;-74
2021/12/04 10:47:52;;;;;;;1999.90;999.90;;;;;;;-0.63;57.86;99485.41;4945058;28;97678;-73
2021/12/04 10:50:27;;;;;;;1999.90;999.90;;;;;;;-0.59;57.87;99492.50;4947455;28;97125;-78
2021/12/04 10:52:57;;;;;;;1999.90;999.90;;;;;;;-0.57;57.71;99489.97;4944123;28;96875;-76
2021/12/04 10:55:30;;;;;;;1999.90;999.90;;;;;;;-0.54;57.95;99492.72;4939953;28;98582;-73
2021/12/04 10:58:25;;;;;;;1999.90;999.90;;;;;;;-0.54;57.55;99487.50;4944847;28;100457;-70
2021/12/04 11:01:04;;;;;;;1999.90;999.90;;;;;;;-0.51;57.49;99485.03;4943582;28;96916;-72
2021/12/04 11:03:40;;;;;;;1999.90;999.90;;;;;;;-0.51;57.74;99475.47;4912477;28;97935;-72
2021/12/04 11:26:41;;;;;;;1999.90;999.90;;;;;;;-0.29;57.13;99431.16;4937237;28;98042;-75
2021/12/04 11:35:14;;;;;;;1999.90;999.90;;;;;;;-0.31;57.42;99440.66;4948427;28;97101;-76
2021/12/04 11:37:58;;;;;;;1999.90;999.90;;;;;;;-0.30;57.77;99442.41;4947819;28;97158;-74
2021/12/04 11:43:17;;;;;;;1999.90;999.90;;;;;;;-0.29;57.47;99444.22;4881572;28;100825;-74
2021/12/04 11:45:50;;;;;;;1999.90;999.90;;;;;;;-0.27;57.53;99447.81;4953585;28;97835;-76
2021/12/04 11:48:28;;;;;;;1999.90;999.90;;;;;;;-0.30;57.48;99450.25;4963101;28;97176;-75
2021/12/04 11:50:58;;;;;;;1999.90;999.90;;;;;;;-0.28;57.36;99448.59;4947946;28;97259;-74
2021/12/04 11:53:26;;;;;;;1999.90;999.90;;;;;;;-0.25;57.34;99446.16;4954140;28;99868;-75
2021/12/04 11:55:55;;;;;;;1999.90;999.90;;;;;;;-0.24;57.49;99436.56;4947504;28;97776;-74
2021/12/04 11:58:25;;;;;;;1999.90;999.90;;;;;;;-0.24;57.40;99429.63;4947142;28;96792;-75
2021/12/04 12:00:56;;;;;;;1999.90;999.90;;;;;;;-0.20;57.35;99423.69;4946496;28;99264;-73
2021/12/04 12:03:27;;;;;;;1999.90;999.90;;;;;;;-0.18;57.18;99411.59;4946716;28;97662;-74
2021/12/04 12:05:58;;;;;;;1999.90;999.90;;;;;;;-0.14;57.29;99408.28;4947676;28;96930;-75
2021/12/04 12:08:29;;;;;;;1999.90;999.90;;;;;;;-0.15;57.19;99409.09;4945158;28;96976;-74
2021/12/04 12:11:01;;;;;;;1999.90;999.90;;;;;;;-0.15;57.14;99401.25;4945415;28;97592;-74
2021/12/04 12:13:32;;;;;;;1999.90;999.90;;;;;;;-0.16;57.09;99399.47;4945716;28;98706;-74
2021/12/04 12:16:06;;;;;;;1999.90;999.90;;;;;;;-0.14;57.08;99399.53;4944706;28;97125;-75
2021/12/04 12:18:45;;;;;;;1999.90;999.90;;;;;;;-0.19;56.99;99407.19;4947384;28;96878;-75
2021/12/04 12:21:16;;;;;;;1999.90;999.90;;;;;;;-0.22;57.35;99408.78;4948753;28;97518;-76
2021/12/04 12:26:41;;;;;;;1999.90;999.90;;;;;;;-0.32;57.54;99410.09;4947559;28;96979;-76
2021/12/04 12:32:25;;;;;;;1999.90;999.90;;;;;;;-0.29;57.57;99415.47;4940541;28;96881;-73
2021/12/04 12:37:48;;;;;;;1999.90;999.90;;;;;;;-0.30;57.87;99395.38;4937182;28;97032;-71
2021/12/04 12:40:19;;;;;;;1999.90;999.90;;;;;;;-0.26;57.53;99392.06;4932804;28;97642;-74
2021/12/04 12:42:47;;;;;;;1999.90;999.90;;;;;;;-0.24;57.68;99382.56;4933438;28;98879;-72
2021/12/04 12:45:17;;;;;;;1999.90;999.90;;;;;;;-0.22;57.22;99377.41;4934885;28;100431;-72
2021/12/04 12:47:50;;;;;;;1999.90;999.90;;;;;;;-0.20;57.12;99371.44;4939234;28;96828;-71
2021/12/04 12:50:30;;;;;;;1999.90;999.90;;;;;;;-0.23;57.34;99363.44;4940509;28;99220;-72
2021/12/04 12:53:08;;;;;;;1999.90;999.90;;;;;;;-0.23;57.46;99373.91;4938216;28;99269;-72
2021/12/04 12:55:36;;;;;;;1999.90;999.90;;;;;;;-0.22;57.56;99367.84;4937948;28;99681;-72
2021/12/04 12:58:20;;;;;;;1999.90;999.90;;;;;;;-0.22;57.47;99370.47;4934184;28;98906;-75
2021/12/04 13:12:06;;;;;;;1999.90;999.90;;;;;;;-0.30;57.42;99356.19;4925467;28;97174;-71
2021/12/04 13:14:37;;;;;;;1999.90;999.90;;;;;;;-0.28;57.41;99348.44;4939977;28;98981;-72
2021/12/04 13:17:12;;;;;;;1999.90;999.90;;;;;;;-0.29;57.59;99344.91;4934119;28;98921;-75
2021/12/04 13:19:42;;;;;;;1999.90;999.90;;;;;;;-0.27;57.73;99345.88;4930520;28;98297;-74
2021/12/04 13:22:12;;;;;;;1999.90;999.90;;;;;;;-0.25;57.17;99341.59;4949066;28;98223;-74
2021/12/04 13:24:42;;;;;;;1999.90;999.90;;;;;;;-0.26;57.47;99347.66;4936234;28;100052;-76
2021/12/04 13:29:40;;;;;;;1999.90;999.90;;;;;;;-0.35;57.69;99331.59;4938660;28;98517;-74
2021/12/04 13:32:10;;;;;;;1999.90;999.90;;;;;;;-0.39;57.75;99326.19;4937094;28;98319;-74
2021/12/04 13:34:40;;;;;;;1999.90;999.90;;;;;;;-0.40;58.20;99327.91;4935409;28;99269;-73
2021/12/04 13:37:09;;;;;;;1999.90;999.90;;;;;;;-0.39;57.98;99318.34;4939786;28;99046;-74